Time;durP1;ratioP1;P1;durP2;ratioP2;P2;SDS_P1;SDS_P2;PMS_P1;PMS_P2;Temp;Humidity;BMP_temperature;BMP_pressure;BME280_temperature;BME280_humidity;BME280_pressure;Samples;Min_cycle;Max_cycle;Signal;HPM_P1;HPM_P2
2023/04/06 00:00:14;;;;;;;9.03;3.70;;;;;;;8.59;52.87;100302.91;5037952;28;20029;-64
2023/04/06 00:02:40;;;;;;;8.02;3.72;;;;;;;8.55;53.05;100302.88;5038291;28;20120;-64
2023/04/06 00:05:06;;;;;;;9.95;3.95;;;;;;;8.53;52.94;100302.00;5037977;28;20064;-64
2023/04/06 00:07:33;;;;;;;10.63;4.00;;;;;;;8.50;53.04;100300.22;5037790;28;20029;-64
2023/04/06 00:09:58;;;;;;;10.20;3.58;;;;;;;8.46;53.24;100298.44;5037282;28;20536;-64
2023/04/06 00:12:24;;;;;;;10.02;4.20;;;;;;;8.43;53.12;100303.66;5037815;28;20061;-64
2023/04/06 00:14:50;;;;;;;9.97;4.40;;;;;;;8.40;53.26;100301.03;5037808;28;20037;-64
2023/04/06 00:17:15;;;;;;;9.68;4.20;;;;;;;8.37;53.55;100301.03;5037494;28;20089;-64
2023/04/06 00:19:41;;;;;;;9.70;4.57;;;;;;;8.27;53.73;100295.69;5037516;28;20037;-64
2023/04/06 00:22:06;;;;;;;11.10;5.10;;;;;;;8.14;54.54;100294.75;5037478;28;20026;-64
2023/04/06 00:24:32;;;;;;;11.02;4.68;;;;;;;8.04;54.71;100293.81;5037487;28;20048;-64
2023/04/06 00:26:57;;;;;;;9.53;4.03;;;;;;;7.96;55.34;100292.03;5034766;28;20034;-64
2023/04/06 00:29:22;;;;;;;11.03;3.83;;;;;;;7.86;55.25;100294.56;5035590;28;20036;-64
2023/04/06 00:31:48;;;;;;;10.77;3.90;;;;;;;7.76;55.61;100296.22;5040913;28;20099;-64
2023/04/06 00:34:15;;;;;;;9.13;3.70;;;;;;;7.73;55.23;100283.09;5054605;28;20032;-64
2023/04/06 00:36:41;;;;;;;10.68;3.70;;;;;;;7.70;55.63;100287.44;5036576;28;20025;-64
2023/04/06 00:39:06;;;;;;;7.50;3.30;;;;;;;7.64;55.77;100283.03;5034905;28;20087;-64
2023/04/06 00:41:32;;;;;;;8.10;3.13;;;;;;;7.61;56.05;100283.03;5034909;28;20039;-64
2023/04/06 00:43:57;;;;;;;9.77;3.20;;;;;;;7.55;55.75;100278.59;5036216;28;20056;-64
2023/04/06 00:46:23;;;;;;;8.83;3.20;;;;;;;7.50;56.65;100274.16;5037080;28;20111;-64
2023/04/06 00:48:48;;;;;;;7.55;3.08;;;;;;;7.42;56.64;100276.72;5036261;28;20029;-64
2023/04/06 00:51:14;;;;;;;7.47;3.13;;;;;;;7.35;56.86;100274.91;5036841;28;20037;-64
2023/04/06 00:53:40;;;;;;;8.95;3.30;;;;;;;7.28;56.66;100273.97;5036792;28;20025;-64
2023/04/06 00:56:05;;;;;;;9.23;3.13;;;;;;;7.22;56.82;100281.78;5036523;28;20026;-64
2023/04/06 00:58:31;;;;;;;8.53;2.80;;;;;;;7.14;56.99;100276.47;5036576;28;20030;-64
2023/04/06 01:00:57;;;;;;;7.67;2.90;;;;;;;7.12;57.35;100275.56;5036837;28;20268;-64
2023/04/06 01:03:23;;;;;;;5.90;2.85;;;;;;;7.05;58.23;100277.25;5036614;28;20034;-64
2023/04/06 01:05:48;;;;;;;6.97;2.93;;;;;;;7.02;57.28;100279.81;5036943;28;20033;-64
2023/04/06 01:08:14;;;;;;;7.13;2.67;;;;;;;6.97;57.27;100285.00;5036361;28;20032;-64
2023/04/06 01:10:40;;;;;;;7.73;2.60;;;;;;;6.94;58.04;100286.72;5036516;28;20099;-64
2023/04/06 01:13:05;;;;;;;6.40;2.93;;;;;;;6.92;58.07;100280.59;5035288;28;20094;-64
2023/04/06 01:15:33;;;;;;;6.63;2.70;;;;;;;6.92;57.69;100291.06;5035379;28;20087;-64
2023/04/06 01:17:59;;;;;;;8.17;2.40;;;;;;;6.95;57.37;100285.88;5036493;28;20025;-64
2023/04/06 01:20:24;;;;;;;7.93;2.95;;;;;;;6.95;58.05;100284.09;5036741;28;20386;-64
2023/04/06 01:22:49;;;;;;;7.77;2.67;;;;;;;6.91;57.87;100279.72;5036255;28;20057;-64
2023/04/06 01:25:15;;;;;;;7.73;2.60;;;;;;;6.86;58.29;100284.03;5036413;28;20037;-64
2023/04/06 01:27:40;;;;;;;6.13;2.60;;;;;;;6.80;58.10;100282.19;5035982;28;20029;-64
2023/04/06 01:30:06;;;;;;;7.80;2.92;;;;;;;6.75;58.58;100284.78;5046359;28;20507;-64
2023/04/06 01:32:32;;;;;;;6.10;2.50;;;;;;;6.74;57.37;100275.16;5056426;28;20053;-64
2023/04/06 01:34:57;;;;;;;7.73;3.23;;;;;;;6.73;58.21;100281.25;5051185;28;20390;-64
2023/04/06 01:37:23;;;;;;;6.77;2.93;;;;;;;6.71;57.80;100274.25;5036394;28;20039;-64
2023/04/06 01:39:48;;;;;;;8.37;2.97;;;;;;;6.70;57.80;100275.13;5036381;28;20029;-64
2023/04/06 01:42:14;;;;;;;8.50;2.78;;;;;;;6.68;58.30;100271.59;5036164;28;20289;-64
2023/04/06 01:44:39;;;;;;;6.77;2.60;;;;;;;6.68;58.09;100266.38;5036588;28;20034;-64
2023/04/06 01:47:04;;;;;;;7.03;2.83;;;;;;;6.67;57.73;100265.47;5036262;28;20021;-64
2023/04/06 01:49:30;;;;;;;6.57;2.83;;;;;;;6.71;57.98;100266.41;5036374;28;20068;-64
2023/04/06 01:51:55;;;;;;;7.43;3.17;;;;;;;6.75;57.99;100268.19;5036283;28;20075;-64
2023/04/06 01:54:21;;;;;;;7.40;2.80;;;;;;;6.73;57.41;100265.53;5036451;28;20105;-64
2023/04/06 01:56:46;;;;;;;8.23;2.57;;;;;;;6.74;57.83;100263.81;5035896;28;20113;-64
2023/04/06 01:59:12;;;;;;;6.30;2.60;;;;;;;6.74;57.46;100255.97;5037104;28;20025;-64
2023/04/06 02:01:37;;;;;;;8.03;2.90;;;;;;;6.78;57.24;100262.97;5040129;28;20029;-64
2023/04/06 02:04:03;;;;;;;8.10;2.70;;;;;;;6.75;57.04;100263.84;5040290;28;20043;-64
2023/04/06 02:06:28;;;;;;;6.63;2.40;;;;;;;6.74;57.40;100261.19;5040111;28;20052;-64
2023/04/06 02:08:54;;;;;;;7.53;2.80;;;;;;;6.69;57.18;100255.91;5039987;28;20033;-64
2023/04/06 02:11:19;;;;;;;7.88;2.65;;;;;;;6.65;57.89;100245.41;5039599;28;20478;-64
2023/04/06 02:13:45;;;;;;;7.77;2.80;;;;;;;6.61;57.26;100252.34;5040073;28;20041;-64
2023/04/06 02:16:10;;;;;;;7.57;2.93;;;;;;;6.58;57.78;100255.78;5039995;28;20033;-64
2023/04/06 02:18:36;;;;;;;7.07;2.90;;;;;;;6.54;57.96;100253.13;5039899;28;20298;-64
2023/04/06 02:21:02;;;;;;;7.20;2.87;;;;;;;6.45;58.10;100249.50;5039753;28;20049;-64
2023/04/06 02:23:27;;;;;;;10.32;3.10;;;;;;;6.39;58.16;100243.31;5038308;28;20405;-64
2023/04/06 02:25:52;;;;;;;8.17;3.20;;;;;;;6.34;58.19;100255.47;5053865;28;20028;-65
2023/04/06 02:28:18;;;;;;;6.37;2.60;;;;;;;6.29;59.07;100253.66;5051121;28;20021;-64
2023/04/06 02:30:43;;;;;;;6.95;3.00;;;;;;;6.24;58.84;100250.13;5039572;28;20029;-64
2023/04/06 02:33:09;;;;;;;7.03;2.90;;;;;;;6.20;58.55;100256.19;5039619;28;20056;-64
2023/04/06 02:35:34;;;;;;;9.77;2.93;;;;;;;6.16;59.21;100251.78;5039902;28;20034;-64
2023/04/06 02:37:59;;;;;;;7.50;2.80;;;;;;;6.12;59.18;100240.38;5057979;28;20506;-64
2023/04/06 02:40:25;;;;;;;9.33;2.87;;;;;;;6.13;59.09;100244.75;5059253;28;20457;-64
2023/04/06 02:42:50;;;;;;;8.95;3.40;;;;;;;6.16;58.61;100251.78;5040318;28;20105;-64
2023/04/06 02:45:16;;;;;;;6.43;2.70;;;;;;;6.20;58.80;100248.34;5038113;28;20034;-64
2023/04/06 02:47:41;;;;;;;9.27;3.30;;;;;;;6.23;58.65;100250.09;5039645;28;20445;-64
2023/04/06 02:50:07;;;;;;;6.30;2.70;;;;;;;6.23;59.29;100251.00;5039210;28;20401;-63
2023/04/06 02:52:33;;;;;;;8.83;3.20;;;;;;;6.17;59.03;100253.53;5039429;28;20060;-64
2023/04/06 02:54:58;;;;;;;7.80;2.90;;;;;;;6.11;59.80;100264.75;5038971;28;20106;-64
2023/04/06 02:57:23;;;;;;;8.15;3.10;;;;;;;6.05;59.00;100259.47;5038909;28;20367;-64
2023/04/06 02:59:49;;;;;;;8.03;3.37;;;;;;;6.01;60.05;100253.28;5039109;28;20045;-64
2023/04/06 03:02:14;;;;;;;9.23;3.40;;;;;;;5.93;60.30;100254.00;5039001;28;20112;-63
2023/04/06 03:04:40;;;;;;;7.07;3.33;;;;;;;5.87;60.08;100250.44;5039233;28;20025;-63
2023/04/06 03:07:05;;;;;;;7.57;3.28;;;;;;;5.78;60.96;100250.28;5039063;28;20060;-64
2023/04/06 03:09:31;;;;;;;7.90;3.20;;;;;;;5.77;60.09;100245.06;5038618;28;20112;-65
2023/04/06 03:11:57;;;;;;;7.43;2.87;;;;;;;5.75;60.78;100239.81;5037864;28;20053;-65
2023/04/06 03:14:22;;;;;;;10.35;3.40;;;;;;;5.74;61.06;100248.50;5037500;28;20036;-65
2023/04/06 03:16:48;;;;;;;7.63;3.13;;;;;;;5.76;60.87;100246.78;5038623;28;20034;-63
2023/04/06 03:19:15;;;;;;;7.30;2.88;;;;;;;5.77;60.95;100245.94;5037452;28;20029;-65
2023/04/06 03:21:41;;;;;;;8.85;3.20;;;;;;;5.78;61.14;100242.44;5038308;28;20494;-65
2023/04/06 03:24:07;;;;;;;7.63;2.97;;;;;;;5.79;61.29;100245.97;5038620;28;20047;-65
2023/04/06 03:26:32;;;;;;;8.07;2.88;;;;;;;5.77;61.48;100247.69;5038553;28;20030;-65
2023/04/06 03:28:57;;;;;;;7.70;2.90;;;;;;;5.74;61.65;100238.03;5038232;28;20056;-65
2023/04/06 03:31:23;;;;;;;7.70;3.07;;;;;;;5.74;61.54;100238.94;5038549;28;20034;-65
2023/04/06 03:33:48;;;;;;;7.37;2.83;;;;;;;5.72;61.56;100238.03;5038635;28;20268;-65
2023/04/06 03:36:14;;;;;;;7.27;2.57;;;;;;;5.74;61.27;100238.94;5044773;28;20135;-65
2023/04/06 03:38:39;;;;;;;8.32;2.80;;;;;;;5.78;61.20;100238.97;5058209;28;20033;-65
2023/04/06 03:41:05;;;;;;;8.90;3.10;;;;;;;5.79;61.37;100243.34;5053927;28;20087;-65
2023/04/06 03:43:30;;;;;;;6.90;2.73;;;;;;;5.82;61.41;100239.06;5038520;28;20112;-65
2023/04/06 03:45:56;;;;;;;7.97;2.70;;;;;;;5.87;61.40;100233.88;5036967;28;20395;-65
2023/04/06 03:48:21;;;;;;;6.80;2.70;;;;;;;5.89;61.39;100237.38;5038550;28;20482;-66
2023/04/06 03:50:46;;;;;;;7.20;3.17;;;;;;;5.87;61.54;100236.50;5038171;28;20397;-65
2023/04/06 03:53:12;;;;;;;7.23;2.90;;;;;;;5.82;61.53;100239.06;5038096;28;20022;-65
2023/04/06 03:55:37;;;;;;;7.00;2.90;;;;;;;5.78;61.76;100238.97;5037832;28;20049;-66
2023/04/06 03:58:03;;;;;;;7.13;2.47;;;;;;;5.74;61.78;100243.25;5038163;28;20029;-65
2023/04/06 04:00:28;;;;;;;7.38;2.90;;;;;;;5.72;62.42;100245.88;5037916;28;20109;-65
2023/04/06 04:02:54;;;;;;;6.60;2.60;;;;;;;5.71;62.29;100238.91;5036968;28;20166;-65
2023/04/06 04:05:19;;;;;;;7.40;3.00;;;;;;;5.71;62.44;100244.13;5036730;28;20124;-65
2023/04/06 04:07:44;;;;;;;8.10;2.87;;;;;;;5.71;62.27;100240.63;5036743;28;20029;-65
2023/04/06 04:10:10;;;;;;;7.68;2.85;;;;;;;5.72;62.92;100238.03;5037512;28;20053;-65
2023/04/06 04:12:36;;;;;;;6.60;2.90;;;;;;;5.76;62.25;100241.56;5038080;28;20037;-65
2023/04/06 04:15:02;;;;;;;7.90;3.03;;;;;;;5.79;62.56;100240.72;5037961;28;20056;-65
2023/04/06 04:17:28;;;;;;;7.78;2.90;;;;;;;5.80;62.58;100248.63;5036017;28;20018;-65
2023/04/06 04:19:53;;;;;;;6.53;2.70;;;;;;;5.85;62.45;100243.44;5052769;28;20084;-65
2023/04/06 04:22:19;;;;;;;6.20;2.60;;;;;;;5.87;62.55;100253.06;5037837;28;20371;-65
2023/04/06 04:24:44;;;;;;;8.43;2.80;;;;;;;5.89;62.34;100251.34;5037443;28;20094;-65
2023/04/06 04:27:10;;;;;;;8.50;3.60;;;;;;;5.93;61.65;100249.66;5037956;28;20474;-65
2023/04/06 04:29:35;;;;;;;8.40;3.42;;;;;;;5.95;62.74;100253.19;5037252;28;20022;-65
2023/04/06 04:32:00;;;;;;;8.70;3.70;;;;;;;5.95;62.55;100252.28;5037834;28;20049;-65
2023/04/06 04:34:26;;;;;;;8.43;3.60;;;;;;;5.94;61.91;100254.03;5036206;28;20071;-65
2023/04/06 04:36:55;;;;;;;8.37;3.20;;;;;;;6.00;61.99;100248.91;5049045;28;20025;-65
2023/04/06 04:39:20;;;;;;;6.88;3.05;;;;;;;6.00;62.16;100243.66;5057213;28;20021;-65
2023/04/06 04:41:46;;;;;;;9.43;2.63;;;;;;;6.02;61.95;100239.38;5047191;28;20029;-65
2023/04/06 04:44:11;;;;;;;10.98;2.75;;;;;;;6.03;61.96;100246.34;5037433;28;20037;-65
2023/04/06 04:46:37;;;;;;;10.20;4.43;;;;;;;6.05;62.10;100248.09;5037669;28;20022;-65
2023/04/06 04:49:02;;;;;;;13.20;5.53;;;;;;;6.02;61.94;100244.59;5037135;28;20064;-65
2023/04/06 04:51:27;;;;;;;14.77;5.93;;;;;;;6.00;62.55;100251.50;5037395;28;20025;-65
2023/04/06 04:53:53;;;;;;;12.70;6.00;;;;;;;6.00;62.95;100248.00;5037144;28;20036;-65
2023/04/06 04:56:18;;;;;;;15.33;5.73;;;;;;;5.99;63.34;100244.53;5036952;28;20055;-65
2023/04/06 04:58:44;;;;;;;9.07;3.83;;;;;;;5.99;62.65;100241.91;5037194;28;20025;-66
2023/04/06 05:01:09;;;;;;;10.60;3.30;;;;;;;6.01;63.14;100242.84;5036002;28;20026;-65
2023/04/06 05:03:38;;;;;;;8.35;3.35;;;;;;;6.03;63.11;100242.88;5037005;28;20052;-65
2023/04/06 05:06:04;;;;;;;8.63;2.70;;;;;;;6.05;63.08;100243.78;5037282;28;20033;-67
2023/04/06 05:08:29;;;;;;;8.43;2.90;;;;;;;6.03;63.13;100235.91;5036927;28;20017;-65
2023/04/06 05:10:55;;;;;;;9.77;3.03;;;;;;;6.05;63.44;100235.03;5036967;28;20512;-65
2023/04/06 05:13:20;;;;;;;11.47;3.00;;;;;;;6.06;63.49;100242.91;5040990;28;20751;-65
2023/04/06 05:15:46;;;;;;;10.17;3.33;;;;;;;6.08;63.77;100242.91;5057042;28;20025;-65
2023/04/06 05:18:12;;;;;;;8.60;2.80;;;;;;;6.11;63.25;100242.97;5037240;28;20022;-65
2023/04/06 05:20:38;;;;;;;8.30;3.28;;;;;;;6.11;63.63;100248.19;5036792;28;20405;-65
2023/04/06 05:23:04;;;;;;;9.93;3.20;;;;;;;6.13;63.91;100249.97;5036753;28;20025;-65
2023/04/06 05:25:30;;;;;;;8.80;3.15;;;;;;;6.15;63.23;100250.00;5036538;28;20026;-65
2023/04/06 05:27:55;;;;;;;10.67;3.43;;;;;;;6.17;63.74;100253.53;5036502;28;20013;-65
2023/04/06 05:30:21;;;;;;;9.45;3.45;;;;;;;6.19;63.39;100257.03;5033821;28;20052;-65
2023/04/06 05:32:47;;;;;;;6.53;2.70;;;;;;;6.21;63.08;100259.66;5033152;28;20025;-65
2023/04/06 05:35:13;;;;;;;8.10;3.00;;;;;;;6.22;63.04;100250.94;5042893;28;20135;-65
2023/04/06 05:37:39;;;;;;;7.65;3.00;;;;;;;6.26;63.22;100264.09;5057960;28;20100;-65
2023/04/06 05:40:05;;;;;;;8.75;3.17;;;;;;;6.28;63.11;100257.16;5035596;28;20033;-65
2023/04/06 05:42:42;;;;;;;9.80;3.33;;;;;;;6.34;62.94;100272.06;5043074;28;20520;-65
2023/04/06 05:45:16;;;;;;;8.97;2.90;;;;;;;6.37;62.78;100276.44;5043237;28;20033;-65
2023/04/06 05:47:43;;;;;;;9.60;3.20;;;;;;;6.38;62.10;100283.41;5043266;28;20080;-65
2023/04/06 05:50:09;;;;;;;10.18;3.30;;;;;;;6.43;62.37;100281.75;5043183;28;20064;-65
2023/04/06 05:52:35;;;;;;;8.65;3.78;;;;;;;6.45;62.37;100290.50;5036651;28;20042;-64
2023/04/06 05:55:00;;;;;;;10.53;3.97;;;;;;;6.48;61.67;100285.31;5041240;28;20043;-65
2023/04/06 05:57:26;;;;;;;10.83;3.63;;;;;;;6.50;62.19;100301.00;5042877;28;20025;-65
2023/04/06 05:59:51;;;;;;;8.05;2.75;;;;;;;6.53;61.90;100296.72;5043000;28;20021;-65
2023/04/06 06:02:20;;;;;;;13.00;4.03;;;;;;;6.54;62.02;100305.44;5041817;28;20075;-64
2023/04/06 06:04:45;;;;;;;7.88;2.70;;;;;;;6.55;61.67;100310.69;5043035;28;20620;-65
2023/04/06 06:07:11;;;;;;;7.15;2.50;;;;;;;6.58;62.02;100308.09;5048909;28;20064;-64
2023/04/06 06:09:36;;;;;;;7.07;2.97;;;;;;;6.60;61.61;100311.63;5049400;28;20089;-65
2023/04/06 06:12:02;;;;;;;7.97;2.67;;;;;;;6.68;61.98;100316.09;5043281;28;20048;-65
2023/04/06 06:14:28;;;;;;;8.27;3.37;;;;;;;6.72;61.67;100325.72;5042370;28;20029;-65
2023/04/06 06:16:54;;;;;;;8.27;3.38;;;;;;;6.77;61.66;100317.94;5030801;28;20025;-66
2023/04/06 06:19:19;;;;;;;9.23;2.88;;;;;;;6.81;61.72;100323.22;5055795;28;20075;-65
2023/04/06 06:21:46;;;;;;;8.95;3.00;;;;;;;6.85;61.39;100319.78;5043115;28;20058;-64
2023/04/06 06:24:11;;;;;;;8.60;3.37;;;;;;;6.86;61.63;100323.28;5042954;28;20025;-65
2023/04/06 06:26:39;;;;;;;10.50;3.33;;;;;;;6.89;62.03;100328.56;5042286;28;20029;-65
2023/04/06 06:29:05;;;;;;;8.18;3.30;;;;;;;6.92;62.05;100332.97;5042056;28;20061;-64
2023/04/06 06:31:31;;;;;;;11.10;3.78;;;;;;;6.93;61.91;100339.94;5041435;28;20049;-65
2023/04/06 06:33:56;;;;;;;8.93;3.40;;;;;;;6.94;61.61;100341.72;5042390;28;20177;-64
2023/04/06 06:36:22;;;;;;;10.35;4.05;;;;;;;6.97;62.33;100341.75;5050255;28;20029;-65
2023/04/06 06:38:47;;;;;;;10.80;4.23;;;;;;;7.01;62.79;100343.53;5062125;28;20036;-65
2023/04/06 06:41:13;;;;;;;9.07;4.33;;;;;;;7.07;62.30;100338.34;5056528;28;20108;-65
2023/04/06 06:43:38;;;;;;;11.17;4.00;;;;;;;7.17;62.16;100345.47;5042480;28;20074;-64
2023/04/06 06:46:04;;;;;;;9.83;3.20;;;;;;;7.27;62.45;100345.56;5039080;28;20673;-65
2023/04/06 06:48:30;;;;;;;8.38;3.45;;;;;;;7.33;61.98;100348.25;5039723;28;20470;-64
2023/04/06 06:50:56;;;;;;;10.47;3.37;;;;;;;7.37;61.72;100347.44;5039629;28;20383;-65
2023/04/06 06:53:22;;;;;;;8.48;3.10;;;;;;;7.43;62.47;100337.00;5039095;28;20030;-63
2023/04/06 06:55:50;;;;;;;12.90;4.13;;;;;;;7.49;63.13;100335.31;5039295;28;20085;-65
2023/04/06 06:58:20;;;;;;;12.77;3.80;;;;;;;7.54;62.67;100336.22;5038817;28;20060;-64
2023/04/06 07:00:45;;;;;;;8.47;3.60;;;;;;;7.61;62.48;100336.28;5041700;28;20119;-65
2023/04/06 07:03:11;;;;;;;12.52;5.03;;;;;;;7.69;62.48;100344.22;5044443;28;20053;-65
2023/04/06 07:05:37;;;;;;;13.38;4.47;;;;;;;7.73;62.96;100340.78;5052932;28;20087;-64
2023/04/06 07:08:02;;;;;;;8.47;3.60;;;;;;;7.76;62.94;100346.03;5057799;28;20393;-65
2023/04/06 07:10:27;;;;;;;9.07;3.67;;;;;;;7.82;63.01;100354.81;5038026;28;20387;-63
2023/04/06 07:12:53;;;;;;;12.30;4.50;;;;;;;7.87;63.74;100347.88;5037922;28;20075;-64
2023/04/06 07:15:18;;;;;;;15.82;3.97;;;;;;;7.93;63.24;100350.56;5038622;28;20037;-65
2023/04/06 07:17:47;;;;;;;10.33;3.33;;;;;;;7.97;63.35;100347.09;5038833;28;20036;-63
2023/04/06 07:20:13;;;;;;;13.95;3.33;;;;;;;8.04;62.55;100356.75;5038882;28;20025;-65
2023/04/06 07:22:40;;;;;;;10.53;3.40;;;;;;;8.12;62.61;100359.44;5038184;28;20156;-64
2023/04/06 07:25:05;;;;;;;9.07;3.22;;;;;;;8.22;62.64;100363.00;5038560;28;20029;-65
2023/04/06 07:27:31;;;;;;;16.38;3.67;;;;;;;8.31;62.58;100354.31;5037073;28;20037;-63
2023/04/06 07:29:56;;;;;;;15.90;3.40;;;;;;;8.39;62.39;100359.63;5038726;28;20021;-65
2023/04/06 07:32:22;;;;;;;15.10;3.13;;;;;;;8.46;61.71;100375.44;5037997;28;20033;-65
2023/04/06 07:34:47;;;;;;;14.95;3.15;;;;;;;8.59;61.79;100383.41;5038206;28;20033;-64
2023/04/06 07:37:13;;;;;;;10.60;3.13;;;;;;;8.76;61.40;100384.38;5070204;28;20026;-65
2023/04/06 07:39:38;;;;;;;11.70;3.70;;;;;;;8.97;61.14;100389.72;5037693;28;20682;-65
2023/04/06 07:42:04;;;;;;;10.73;3.40;;;;;;;9.11;61.24;100385.41;5037381;28;20026;-64
2023/04/06 07:44:29;;;;;;;10.48;3.92;;;;;;;9.27;60.88;100391.59;5035900;28;20033;-65
2023/04/06 07:46:55;;;;;;;11.03;3.60;;;;;;;9.36;60.65;100396.00;5052782;28;20088;-64
2023/04/06 07:49:20;;;;;;;9.07;3.70;;;;;;;9.43;60.26;100387.25;5058265;28;20032;-63
2023/04/06 07:51:46;;;;;;;14.37;3.37;;;;;;;9.52;60.04;100390.78;5057897;28;20051;-65
2023/04/06 07:54:11;;;;;;;11.63;3.73;;;;;;;9.65;59.59;100387.31;5055353;28;20021;-65
2023/04/06 07:56:37;;;;;;;7.97;3.17;;;;;;;9.76;59.37;100395.22;5037997;28;20040;-63
2023/04/06 07:59:02;;;;;;;9.40;3.57;;;;;;;9.91;59.25;100396.97;5038495;28;20454;-63
2023/04/06 08:01:29;;;;;;;6.80;3.00;;;;;;;10.03;58.66;100390.84;5037828;28;20036;-63
2023/04/06 08:03:55;;;;;;;8.77;3.22;;;;;;;10.08;58.90;100381.19;5028988;28;20425;-63
2023/04/06 08:06:21;;;;;;;9.80;3.58;;;;;;;10.15;58.71;100382.06;5037955;28;20029;-65
2023/04/06 08:08:46;;;;;;;8.00;3.37;;;;;;;10.18;58.40;100379.44;5037613;28;20535;-65
2023/04/06 08:11:12;;;;;;;8.93;3.13;;;;;;;10.19;58.72;100383.81;5037505;28;20453;-65
2023/04/06 08:13:37;;;;;;;14.57;3.60;;;;;;;10.19;58.20;100386.44;5037557;28;20072;-65
2023/04/06 08:16:03;;;;;;;10.50;3.40;;;;;;;10.19;58.51;100391.72;5037668;28;20108;-65
2023/04/06 08:18:29;;;;;;;10.80;2.80;;;;;;;10.25;58.14;100393.47;5037775;28;20037;-64
2023/04/06 08:20:55;;;;;;;8.68;2.97;;;;;;;10.26;57.98;100393.50;5037730;28;20040;-64
2023/04/06 08:23:21;;;;;;;7.60;3.20;;;;;;;10.26;58.06;100398.75;5024753;28;20445;-64
2023/04/06 08:25:46;;;;;;;9.63;3.40;;;;;;;10.32;58.19;100409.25;5036886;28;20029;-64
2023/04/06 08:28:12;;;;;;;8.47;3.23;;;;;;;10.37;58.25;100408.38;5037208;28;20052;-64
2023/04/06 08:30:42;;;;;;;8.38;3.50;;;;;;;10.40;58.37;100413.63;5037467;28;20393;-64
2023/04/06 08:33:08;;;;;;;11.30;3.70;;;;;;;10.45;58.62;100414.53;5035348;28;20037;-64
2023/04/06 08:35:34;;;;;;;10.63;3.70;;;;;;;10.51;58.48;100417.19;5038915;28;20029;-64
2023/04/06 08:37:59;;;;;;;9.70;3.20;;;;;;;10.60;58.51;100427.69;5057281;28;20122;-65
2023/04/06 08:40:25;;;;;;;7.68;3.10;;;;;;;10.67;57.98;100423.31;5042229;28;20029;-65
2023/04/06 08:42:55;;;;;;;7.87;2.80;;;;;;;10.75;57.81;100420.66;5036730;28;20486;-64
2023/04/06 08:45:21;;;;;;;8.23;3.00;;;;;;;10.82;57.65;100418.84;5032451;28;20048;-65
2023/04/06 08:47:48;;;;;;;9.85;3.63;;;;;;;10.91;57.87;100417.06;5037257;28;20456;-64
2023/04/06 08:50:14;;;;;;;8.45;3.17;;;;;;;10.97;57.47;100420.56;5037118;28;20025;-64
2023/04/06 08:52:42;;;;;;;9.68;3.08;;;;;;;11.02;57.89;100418.81;5036903;28;20037;-64
2023/04/06 08:55:08;;;;;;;8.93;3.13;;;;;;;11.11;57.66;100418.78;5036607;28;20025;-65
2023/04/06 08:57:36;;;;;;;9.50;3.10;;;;;;;11.16;58.06;100413.50;5037053;28;20028;-64
2023/04/06 09:00:02;;;;;;;9.68;3.33;;;;;;;11.24;57.43;100408.19;5047094;28;20082;-65
2023/04/06 09:02:27;;;;;;;9.20;3.10;;;;;;;11.31;57.47;100410.75;5036912;28;20026;-65
2023/04/06 09:04:54;;;;;;;8.53;3.63;;;;;;;11.37;57.16;100417.78;5036622;28;20030;-65
2023/04/06 09:07:21;;;;;;;8.13;3.63;;;;;;;11.45;57.06;100417.75;5037127;28;20523;-65
2023/04/06 09:09:51;;;;;;;14.70;3.93;;;;;;;11.55;56.72;100423.84;5035527;28;20072;-65
2023/04/06 09:12:24;;;;;;;8.15;3.58;;;;;;;11.61;56.85;100423.81;5036705;28;20033;-64
2023/04/06 09:14:50;;;;;;;8.75;3.58;;;;;;;11.70;56.74;100429.03;5036378;28;20025;-65
2023/04/06 09:17:22;;;;;;;9.57;3.37;;;;;;;11.78;56.49;100421.94;5036806;28;20018;-65
2023/04/06 09:19:48;;;;;;;9.50;3.47;;;;;;;11.94;56.37;100418.31;5036489;28;20021;-65
2023/04/06 09:22:13;;;;;;;11.45;3.10;;;;;;;12.03;56.12;100413.88;5036794;28;20040;-64
2023/04/06 09:24:41;;;;;;;9.03;2.93;;;;;;;12.15;55.97;100412.91;5036016;28;20104;-64
2023/04/06 09:27:06;;;;;;;9.40;3.08;;;;;;;12.29;56.07;100406.63;5036175;28;20496;-65
2023/04/06 09:29:32;;;;;;;9.27;3.03;;;;;;;12.39;55.61;100410.06;5037387;28;20421;-64
2023/04/06 09:32:07;;;;;;;8.60;2.50;;;;;;;12.51;54.43;100406.44;5034773;28;20597;-65
2023/04/06 09:34:42;;;;;;;6.28;2.10;;;;;;;12.60;52.99;100407.22;5037041;28;20025;-64
2023/04/06 09:37:18;;;;;;;6.38;2.03;;;;;;;12.65;52.43;100404.53;5036143;28;20501;-65
2023/04/06 09:39:45;;;;;;;7.82;2.33;;;;;;;12.71;52.84;100409.75;5036410;28;20021;-64
2023/04/06 09:42:22;;;;;;;7.80;2.40;;;;;;;12.78;51.97;100411.44;5036420;28;20037;-64
2023/04/06 09:44:48;;;;;;;6.63;2.10;;;;;;;12.86;51.65;100405.19;5036367;28;20025;-65
2023/04/06 09:47:15;;;;;;;6.70;2.27;;;;;;;12.88;51.61;100408.69;5036675;28;20396;-64
2023/04/06 09:49:41;;;;;;;7.43;2.38;;;;;;;12.92;51.69;100416.59;5036672;28;20072;-65
2023/04/06 09:52:11;;;;;;;9.57;2.53;;;;;;;12.99;51.33;100420.00;5036065;28;20029;-65
2023/04/06 09:54:37;;;;;;;7.35;2.15;;;;;;;13.08;51.54;100424.31;5035703;28;20033;-65
2023/04/06 09:57:25;;;;;;;9.02;3.10;;;;;;;13.14;51.33;100418.09;5041689;28;20030;-65
2023/04/06 10:00:09;;;;;;;7.63;2.43;;;;;;;13.28;51.24;100425.84;5035306;28;20485;-64
2023/04/06 10:02:34;;;;;;;7.68;2.30;;;;;;;13.47;51.20;100415.91;5036066;28;20093;-64
2023/04/06 10:05:09;;;;;;;8.30;2.57;;;;;;;13.63;50.58;100411.31;5035894;28;20536;-64
2023/04/06 10:07:36;;;;;;;7.70;2.10;;;;;;;13.74;50.11;100419.97;5036017;28;20082;-65
2023/04/06 10:10:03;;;;;;;7.70;2.10;;;;;;;13.88;50.12;100417.09;5035229;28;20061;-64
2023/04/06 10:12:28;;;;;;;7.95;2.50;;;;;;;14.02;50.09;100414.25;5038322;28;20432;-65
2023/04/06 10:14:54;;;;;;;6.57;2.40;;;;;;;14.23;49.48;100409.50;5036528;28;20041;-64
2023/04/06 10:17:20;;;;;;;7.90;2.47;;;;;;;14.40;49.43;100413.63;5035994;28;20034;-64
2023/04/06 10:20:08;;;;;;;6.33;2.50;;;;;;;14.52;49.25;100415.19;5039154;28;20032;-65
2023/04/06 10:22:56;;;;;;;7.57;2.45;;;;;;;14.67;48.37;100422.84;5038314;28;20196;-65
2023/04/06 10:25:32;;;;;;;8.20;2.45;;;;;;;14.90;47.72;100425.09;5039458;28;20100;-65
2023/04/06 10:28:06;;;;;;;7.20;2.60;;;;;;;15.05;47.33;100417.72;5039543;28;20079;-65
2023/04/06 10:30:32;;;;;;;6.10;2.50;;;;;;;15.29;46.88;100419.03;5039613;28;20029;-65
2023/04/06 10:32:58;;;;;;;7.65;2.00;;;;;;;15.56;46.67;100414.00;5038613;28;20561;-65
2023/04/06 10:35:24;;;;;;;5.90;2.20;;;;;;;15.85;46.26;100412.47;5046073;28;20033;-64
2023/04/06 10:37:50;;;;;;;8.75;2.58;;;;;;;16.16;45.80;100400.25;5038275;28;20036;-65
2023/04/06 10:40:26;;;;;;;7.57;2.47;;;;;;;16.39;45.32;100398.78;5039417;28;20094;-65
2023/04/06 10:42:53;;;;;;;6.68;2.25;;;;;;;16.67;44.81;100395.41;5040282;28;20034;-65
2023/04/06 10:45:24;;;;;;;9.57;2.33;;;;;;;16.85;43.88;100400.22;5039361;28;20080;-65
2023/04/06 10:47:53;;;;;;;5.25;2.00;;;;;;;16.97;44.25;100395.44;5039570;28;20056;-65
2023/04/06 10:50:18;;;;;;;6.00;2.08;;;;;;;17.17;43.29;100382.47;5039182;28;20171;-65
2023/04/06 10:52:45;;;;;;;5.43;1.90;;;;;;;17.34;42.02;100383.75;5039239;28;20076;-65
2023/04/06 10:55:13;;;;;;;7.77;2.00;;;;;;;17.44;42.02;100379.03;5039671;28;20033;-65
2023/04/06 10:57:38;;;;;;;5.97;1.77;;;;;;;17.56;41.57;100377.78;5044475;28;20026;-64
2023/04/06 11:00:05;;;;;;;7.33;2.00;;;;;;;17.68;41.46;100380.03;5038269;28;20032;-65
2023/04/06 11:02:31;;;;;;;5.65;1.70;;;;;;;17.90;40.74;100382.00;5039045;28;20047;-65
2023/04/06 11:04:58;;;;;;;5.38;1.75;;;;;;;18.07;40.78;100371.72;5037803;28;20040;-65
2023/04/06 11:07:29;;;;;;;6.70;1.50;;;;;;;18.20;40.07;100368.59;5039095;28;20057;-65
2023/04/06 11:09:54;;;;;;;5.00;1.80;;;;;;;18.35;39.82;100360.09;5040213;28;20029;-65
2023/04/06 11:12:25;;;;;;;5.33;1.77;;;;;;;18.53;39.59;100365.72;5037574;28;20035;-65
2023/04/06 11:15:04;;;;;;;6.53;2.05;;;;;;;18.59;38.59;100361.97;5040266;28;20036;-65
2023/04/06 11:17:31;;;;;;;6.18;1.80;;;;;;;18.70;38.51;100362.44;5036076;28;20517;-65
2023/04/06 11:19:57;;;;;;;5.47;1.60;;;;;;;18.79;38.37;100362.06;5038776;28;20021;-65
2023/04/06 11:22:24;;;;;;;6.10;1.83;;;;;;;18.93;37.88;100358.94;5038311;28;20032;-65
2023/04/06 11:24:49;;;;;;;6.10;1.90;;;;;;;19.12;37.85;100354.72;5037727;28;20108;-65